Time;durP1;ratioP1;P1;durP2;ratioP2;P2;SDS_P1;SDS_P2;PMS_P1;PMS_P2;Temp;Humidity;BMP_temperature;BMP_pressure;BME280_temperature;BME280_humidity;BME280_pressure;Samples;Min_cycle;Max_cycle;Signal;HPM_P1;HPM_P2
2021/07/03 00:00:08;;;;;;;21.95;14.00;;;;;;;;;;1493169;39;20023;-57
2021/07/03 00:01:09;;;;;;;26.02;15.00;;;;;;;;;;1493144;39;20028;-57
2021/07/03 00:02:13;;;;;;;23.38;13.77;;;;;;;;;;1493073;39;20392;-57
2021/07/03 00:03:14;;;;;;;26.08;13.80;;;;;;;;;;1493002;39;20480;-57
2021/07/03 00:04:16;;;;;;;22.83;13.77;;;;;;;;;;1493115;39;20109;-57
2021/07/03 00:05:17;;;;;;;26.27;15.02;;;;;;;;;;1493046;39;20031;-57
2021/07/03 00:06:19;;;;;;;27.13;14.35;;;;;;;;;;1493230;39;20027;-57
2021/07/03 00:07:19;;;;;;;29.60;15.05;;;;;;;;;;1493029;39;20351;-58
2021/07/03 00:08:23;;;;;;;23.52;13.95;;;;;;;;;;1493052;39;20028;-57
2021/07/03 00:09:24;;;;;;;29.85;14.13;;;;;;;;;;1493024;39;20142;-57
2021/07/03 00:10:26;;;;;;;22.67;13.63;;;;;;;;;;1493039;39;20113;-58
2021/07/03 00:11:28;;;;;;;23.65;14.20;;;;;;;;;;1493184;39;20031;-57
2021/07/03 00:12:30;;;;;;;29.05;15.20;;;;;;;;;;1493068;39;20031;-56
2021/07/03 00:13:32;;;;;;;23.25;13.23;;;;;;;;;;1493023;39;20020;-57
2021/07/03 00:14:34;;;;;;;23.17;13.73;;;;;;;;;;1493138;39;20406;-57
2021/07/03 00:15:35;;;;;;;25.33;13.98;;;;;;;;;;1493018;39;20031;-57
2021/07/03 00:16:37;;;;;;;26.30;14.10;;;;;;;;;;1493276;39;20292;-57
2021/07/03 00:17:39;;;;;;;20.70;14.05;;;;;;;;;;1492959;39;20020;-58
2021/07/03 00:18:40;;;;;;;20.17;13.00;;;;;;;;;;1493084;39;20024;-57
2021/07/03 00:19:41;;;;;;;24.50;14.75;;;;;;;;;;1493135;39;20024;-57
2021/07/03 00:20:44;;;;;;;23.13;13.90;;;;;;;;;;1493084;39;20024;-57
2021/07/03 00:21:45;;;;;;;22.63;13.98;;;;;;;;;;1492967;39;20043;-57
2021/07/03 00:22:47;;;;;;;22.92;13.65;;;;;;;;;;1493024;39;20032;-57
2021/07/03 00:23:48;;;;;;;28.42;14.85;;;;;;;;;;1492973;39;20480;-57
2021/07/03 00:24:50;;;;;;;23.25;14.35;;;;;;;;;;1493145;39;20073;-58
2021/07/03 00:25:52;;;;;;;27.42;14.32;;;;;;;;;;1493043;39;20031;-57
2021/07/03 00:26:54;;;;;;;24.00;14.05;;;;;;;;;;1493080;39;20032;-57
2021/07/03 00:27:54;;;;;;;23.65;13.40;;;;;;;;;;1492996;39;20023;-57
2021/07/03 00:28:57;;;;;;;28.50;14.20;;;;;;;;;;1492999;39;20028;-57
2021/07/03 00:29:58;;;;;;;23.92;14.35;;;;;;;;;;1492915;39;20031;-57
2021/07/03 00:31:00;;;;;;;26.30;15.02;;;;;;;;;;1493085;39;20028;-57
2021/07/03 00:32:01;;;;;;;24.63;13.98;;;;;;;;;;1492975;39;20298;-57
2021/07/03 00:33:03;;;;;;;27.55;14.80;;;;;;;;;;1492850;39;20388;-57
2021/07/03 00:34:04;;;;;;;21.75;13.23;;;;;;;;;;1493063;39;20024;-57
2021/07/03 00:35:07;;;;;;;24.55;13.80;;;;;;;;;;1493078;39;20023;-57
2021/07/03 00:36:08;;;;;;;25.02;14.07;;;;;;;;;;1492974;39;20024;-57
2021/07/03 00:37:10;;;;;;;25.02;13.68;;;;;;;;;;1493154;39;20024;-57
2021/07/03 00:38:11;;;;;;;28.65;14.07;;;;;;;;;;1493230;39;20418;-57
2021/07/03 00:39:13;;;;;;;26.23;13.93;;;;;;;;;;1493037;39;20027;-57
2021/07/03 00:40:15;;;;;;;27.35;13.95;;;;;;;;;;1493102;39;20016;-57
2021/07/03 00:41:17;;;;;;;21.05;13.82;;;;;;;;;;1492998;39;20035;-57
2021/07/03 00:42:18;;;;;;;26.20;14.40;;;;;;;;;;1492872;39;20027;-57
2021/07/03 00:43:20;;;;;;;25.40;14.05;;;;;;;;;;1493037;39;20028;-58
2021/07/03 00:44:27;;;;;;;25.73;14.75;;;;;;;;;;1492965;39;20395;-57
2021/07/03 00:45:29;;;;;;;22.95;13.27;;;;;;;;;;1493196;39;20044;-57
2021/07/03 00:46:30;;;;;;;24.83;14.27;;;;;;;;;;1492967;39;20028;-57
2021/07/03 00:47:31;;;;;;;25.45;14.38;;;;;;;;;;1492950;39;20044;-57
2021/07/03 00:48:32;;;;;;;27.55;14.15;;;;;;;;;;1492991;39;20026;-58
2021/07/03 00:49:35;;;;;;;25.20;13.90;;;;;;;;;;1492986;39;20391;-57
2021/07/03 00:50:37;;;;;;;24.45;13.40;;;;;;;;;;1492876;39;20390;-57
2021/07/03 00:51:39;;;;;;;27.10;15.25;;;;;;;;;;1492877;39;20027;-57
2021/07/03 00:52:41;;;;;;;26.70;13.90;;;;;;;;;;1492904;39;20028;-57
2021/07/03 00:53:43;;;;;;;23.88;13.40;;;;;;;;;;1493024;39;20045;-57
2021/07/03 00:54:45;;;;;;;23.77;13.57;;;;;;;;;;1493103;39;20023;-57
2021/07/03 00:55:47;;;;;;;22.85;13.55;;;;;;;;;;1492952;39;20028;-57
2021/07/03 00:56:48;;;;;;;24.45;13.27;;;;;;;;;;1492901;39;20027;-57
2021/07/03 00:57:50;;;;;;;24.17;13.40;;;;;;;;;;1493175;39;20024;-57
2021/07/03 00:58:50;;;;;;;24.83;14.25;;;;;;;;;;1492982;39;20261;-57
2021/07/03 00:59:54;;;;;;;24.95;13.70;;;;;;;;;;1492989;39;20054;-58
2021/07/03 01:00:54;;;;;;;25.70;13.85;;;;;;;;;;1492916;39;20036;-57
2021/07/03 01:01:56;;;;;;;23.73;13.38;;;;;;;;;;1493084;39;20027;-57
2021/07/03 01:02:58;;;;;;;23.77;14.27;;;;;;;;;;1492977;39;20036;-57
2021/07/03 01:03:59;;;;;;;22.75;13.98;;;;;;;;;;1493001;39;20027;-57
2021/07/03 01:05:01;;;;;;;25.88;14.45;;;;;;;;;;1492959;39;20379;-57
2021/07/03 01:06:02;;;;;;;24.40;14.45;;;;;;;;;;1492872;39;20027;-57
2021/07/03 01:07:05;;;;;;;23.58;13.45;;;;;;;;;;1492871;39;20039;-57
2021/07/03 01:08:06;;;;;;;22.08;13.45;;;;;;;;;;1492991;39;20030;-57
2021/07/03 01:09:07;;;;;;;22.52;13.35;;;;;;;;;;1493071;39;20397;-57
2021/07/03 01:10:17;;;;;;;22.75;14.27;;;;;;;;;;1492948;39;20028;-57
2021/07/03 01:11:25;;;;;;;24.92;13.43;;;;;;;;;;1493056;39;20089;-57
2021/07/03 01:12:26;;;;;;;22.65;13.43;;;;;;;;;;1493060;39;20127;-57
2021/07/03 01:13:30;;;;;;;25.02;14.02;;;;;;;;;;1493125;39;20036;-57
2021/07/03 01:14:31;;;;;;;27.65;14.30;;;;;;;;;;1492905;39;20030;-57
2021/07/03 01:15:34;;;;;;;24.98;14.05;;;;;;;;;;1492794;39;20032;-57
2021/07/03 01:16:35;;;;;;;26.48;14.10;;;;;;;;;;1492810;39;20024;-57
2021/07/03 01:17:37;;;;;;;22.80;13.40;;;;;;;;;;1492983;39;20101;-57
2021/07/03 01:18:37;;;;;;;24.00;13.93;;;;;;;;;;1492963;39;20024;-57
2021/07/03 01:19:39;;;;;;;23.50;14.23;;;;;;;;;;1492902;39;20055;-58
2021/07/03 01:20:42;;;;;;;22.02;13.75;;;;;;;;;;1492928;39;20024;-57
2021/07/03 01:21:47;;;;;;;20.00;13.38;;;;;;;;;;1492860;39;20036;-57
2021/07/03 01:22:49;;;;;;;22.17;13.75;;;;;;;;;;1493035;39;20027;-57
2021/07/03 01:23:50;;;;;;;21.95;13.60;;;;;;;;;;1492943;39;20032;-57
2021/07/03 01:24:51;;;;;;;24.75;13.82;;;;;;;;;;1492816;39;20051;-57
2021/07/03 01:25:58;;;;;;;24.13;14.02;;;;;;;;;;1492972;39;20028;-57
2021/07/03 01:26:59;;;;;;;23.70;13.32;;;;;;;;;;1492839;39;20024;-57
2021/07/03 01:28:03;;;;;;;22.60;13.13;;;;;;;;;;1492865;39;20034;-58
2021/07/03 01:29:04;;;;;;;19.58;12.60;;;;;;;;;;1492787;39;20410;-57
2021/07/03 01:30:09;;;;;;;22.85;13.85;;;;;;;;;;1492873;39;20028;-57
2021/07/03 01:31:10;;;;;;;26.40;13.55;;;;;;;;;;1492840;39;20031;-57
2021/07/03 01:32:12;;;;;;;23.08;13.63;;;;;;;;;;1492855;39;20101;-57
2021/07/03 01:33:13;;;;;;;26.63;13.70;;;;;;;;;;1492807;39;20391;-57
2021/07/03 01:34:16;;;;;;;21.83;13.30;;;;;;;;;;1492899;39;20443;-57
2021/07/03 01:35:17;;;;;;;23.27;14.07;;;;;;;;;;1492876;39;20031;-57
2021/07/03 01:36:19;;;;;;;23.52;13.38;;;;;;;;;;1492910;39;20024;-57
2021/07/03 01:37:21;;;;;;;21.52;13.48;;;;;;;;;;1492762;39;20399;-57
2021/07/03 01:38:26;;;;;;;22.27;13.40;;;;;;;;;;1492858;39;20016;-57
2021/07/03 01:39:27;;;;;;;23.02;13.32;;;;;;;;;;1492964;39;20024;-58
2021/07/03 01:40:29;;;;;;;23.27;13.07;;;;;;;;;;1492887;39;20039;-57
2021/07/03 01:41:30;;;;;;;22.95;12.90;;;;;;;;;;1492742;39;20021;-57
2021/07/03 01:42:32;;;;;;;23.23;13.25;;;;;;;;;;1492935;39;20028;-57
2021/07/03 01:43:32;;;;;;;24.80;14.20;;;;;;;;;;1492782;39;20024;-57
2021/07/03 01:44:35;;;;;;;22.02;13.80;;;;;;;;;;1492893;39;20028;-57
2021/07/03 01:45:36;;;;;;;23.73;13.57;;;;;;;;;;1492698;39;20407;-58
2021/07/03 01:46:38;;;;;;;22.23;13.32;;;;;;;;;;1492929;39;20035;-57
2021/07/03 01:47:43;;;;;;;23.25;13.73;;;;;;;;;;1492743;39;20031;-57
2021/07/03 01:48:45;;;;;;;25.13;13.05;;;;;;;;;;1492940;39;20036;-57
2021/07/03 01:49:45;;;;;;;23.10;12.68;;;;;;;;;;1492820;39;20024;-57
2021/07/03 01:50:47;;;;;;;25.20;13.82;;;;;;;;;;1492916;39;20031;-57
2021/07/03 01:51:49;;;;;;;23.92;13.63;;;;;;;;;;1492916;39;20028;-57
2021/07/03 01:52:52;;;;;;;21.67;13.38;;;;;;;;;;1492794;39;20376;-57
2021/07/03 01:53:55;;;;;;;24.00;14.27;;;;;;;;;;1492854;39;20020;-57
2021/07/03 01:54:56;;;;;;;20.38;13.40;;;;;;;;;;1492803;39;20032;-57
2021/07/03 01:55:58;;;;;;;25.95;14.23;;;;;;;;;;1492709;39;20392;-57
2021/07/03 01:56:59;;;;;;;22.13;13.15;;;;;;;;;;1492871;39;20028;-57
2021/07/03 01:58:00;;;;;;;23.70;13.52;;;;;;;;;;1492762;39;20412;-57
2021/07/03 01:59:02;;;;;;;25.77;14.23;;;;;;;;;;1492776;39;20060;-57
2021/07/03 02:00:06;;;;;;;25.88;13.40;;;;;;;;;;1492862;39;20051;-57
2021/07/03 02:01:08;;;;;;;25.20;13.90;;;;;;;;;;1492798;39;20020;-56
2021/07/03 02:02:09;;;;;;;22.30;14.18;;;;;;;;;;1492690;39;20291;-57
2021/07/03 02:03:11;;;;;;;24.95;13.05;;;;;;;;;;1492911;39;20028;-57
2021/07/03 02:04:12;;;;;;;22.67;14.20;;;;;;;;;;1492813;39;20020;-57
2021/07/03 02:05:14;;;;;;;22.95;13.05;;;;;;;;;;1492720;39;20024;-58
2021/07/03 02:06:14;;;;;;;22.45;13.32;;;;;;;;;;1492910;39;20020;-57
2021/07/03 02:07:26;;;;;;;22.70;13.30;;;;;;;;;;1492888;39;20065;-56
2021/07/03 02:08:28;;;;;;;21.95;13.05;;;;;;;;;;1492702;39;20024;-57
2021/07/03 02:09:30;;;;;;;22.42;13.52;;;;;;;;;;1492694;39;20020;-57
2021/07/03 02:10:31;;;;;;;22.40;13.80;;;;;;;;;;1492754;39;20077;-57
2021/07/03 02:11:32;;;;;;;23.83;14.07;;;;;;;;;;1492782;39;20361;-57
2021/07/03 02:12:33;;;;;;;26.23;14.15;;;;;;;;;;1492633;39;20024;-57
2021/07/03 02:13:35;;;;;;;26.88;13.77;;;;;;;;;;1492810;39;20024;-57
2021/07/03 02:14:36;;;;;;;23.92;13.40;;;;;;;;;;1492814;39;20027;-57
2021/07/03 02:15:38;;;;;;;27.92;14.73;;;;;;;;;;1492704;39;20411;-57
2021/07/03 02:16:41;;;;;;;25.75;13.90;;;;;;;;;;1492691;39;20028;-57
2021/07/03 02:17:43;;;;;;;25.92;14.05;;;;;;;;;;1492887;39;20064;-56
2021/07/03 02:18:44;;;;;;;23.98;13.73;;;;;;;;;;1492773;39;20028;-57
2021/07/03 02:19:46;;;;;;;24.25;14.35;;;;;;;;;;1492729;39;20028;-57
2021/07/03 02:20:47;;;;;;;26.15;13.77;;;;;;;;;;1492643;39;20031;-57
2021/07/03 02:21:49;;;;;;;22.33;13.25;;;;;;;;;;1492825;39;20027;-57
2021/07/03 02:22:50;;;;;;;27.00;13.70;;;;;;;;;;1492613;39;20417;-57
2021/07/03 02:23:53;;;;;;;25.48;13.68;;;;;;;;;;1492710;39;20028;-57
2021/07/03 02:24:54;;;;;;;23.85;13.77;;;;;;;;;;1492745;39;20024;-57
2021/07/03 02:25:56;;;;;;;24.13;13.88;;;;;;;;;;1492707;39;20032;-58
2021/07/03 02:26:57;;;;;;;25.33;14.20;;;;;;;;;;1492748;39;20024;-58
2021/07/03 02:27:59;;;;;;;22.95;13.60;;;;;;;;;;1492958;39;20043;-57
2021/07/03 02:29:00;;;;;;;24.65;13.68;;;;;;;;;;1493256;39;20019;-58
2021/07/03 02:30:02;;;;;;;26.60;13.32;;;;;;;;;;1493372;39;20338;-58
2021/07/03 02:31:04;;;;;;;24.58;13.75;;;;;;;;;;1493395;39;20031;-57
2021/07/03 02:32:06;;;;;;;23.10;13.45;;;;;;;;;;1493402;39;20317;-57
2021/07/03 02:33:07;;;;;;;23.52;14.57;;;;;;;;;;1493346;39;20016;-57
2021/07/03 02:34:09;;;;;;;25.98;14.05;;;;;;;;;;1493309;39;20027;-54
2021/07/03 02:35:11;;;;;;;26.60;14.95;;;;;;;;;;1493322;39;20024;-54
2021/07/03 02:36:13;;;;;;;23.90;13.65;;;;;;;;;;1493296;39;20353;-54
2021/07/03 02:37:14;;;;;;;25.30;13.88;;;;;;;;;;1493269;39;20023;-54
2021/07/03 02:38:16;;;;;;;28.00;13.57;;;;;;;;;;1493288;39;20319;-56
2021/07/03 02:39:18;;;;;;;25.17;13.90;;;;;;;;;;1493398;39;20027;-57
2021/07/03 02:40:20;;;;;;;25.77;13.55;;;;;;;;;;1493361;39;20375;-55
2021/07/03 02:41:23;;;;;;;24.60;13.25;;;;;;;;;;1493330;39;20024;-54
2021/07/03 02:42:24;;;;;;;27.08;14.73;;;;;;;;;;1493211;39;20024;-54
2021/07/03 02:43:26;;;;;;;26.42;14.55;;;;;;;;;;1493237;39;20031;-55
2021/07/03 02:44:26;;;;;;;24.50;14.07;;;;;;;;;;1493259;39;20020;-54
2021/07/03 02:45:28;;;;;;;29.38;14.82;;;;;;;;;;1493551;39;20051;-55
2021/07/03 02:46:29;;;;;;;26.85;13.93;;;;;;;;;;1493242;39;20284;-57
2021/07/03 02:47:31;;;;;;;23.15;13.50;;;;;;;;;;1493424;39;20024;-57
2021/07/03 02:48:32;;;;;;;25.77;14.07;;;;;;;;;;1493312;39;20035;-55
2021/07/03 02:49:34;;;;;;;25.60;14.02;;;;;;;;;;1493434;39;20024;-57
2021/07/03 02:50:35;;;;;;;25.63;13.77;;;;;;;;;;1493182;39;20035;-55
2021/07/03 02:51:37;;;;;;;24.15;13.70;;;;;;;;;;1493260;39;20028;-57
2021/07/03 02:52:37;;;;;;;23.98;13.75;;;;;;;;;;1493284;39;20034;-57
2021/07/03 02:53:39;;;;;;;24.70;14.02;;;;;;;;;;1493367;39;20039;-57
2021/07/03 02:54:41;;;;;;;27.05;13.85;;;;;;;;;;1493294;39;20024;-57
2021/07/03 02:55:43;;;;;;;22.85;14.07;;;;;;;;;;1493322;39;20031;-56
2021/07/03 02:56:44;;;;;;;20.13;12.85;;;;;;;;;;1493273;39;20028;-56
2021/07/03 02:57:46;;;;;;;26.23;13.82;;;;;;;;;;1493251;39;20031;-55
2021/07/03 02:58:47;;;;;;;25.58;13.10;;;;;;;;;;1493297;39;20021;-57
2021/07/03 02:59:49;;;;;;;25.75;14.23;;;;;;;;;;1493177;39;20024;-57
2021/07/03 03:00:49;;;;;;;23.95;13.27;;;;;;;;;;1493232;39;20019;-57
2021/07/03 03:01:52;;;;;;;23.63;13.57;;;;;;;;;;1493346;39;20309;-55
2021/07/03 03:02:53;;;;;;;25.58;13.98;;;;;;;;;;1493218;39;20032;-56
2021/07/03 03:03:54;;;;;;;25.85;14.30;;;;;;;;;;1493254;39;20380;-56
2021/07/03 03:04:55;;;;;;;28.25;14.60;;;;;;;;;;1493189;39;20024;-57
2021/07/03 03:05:57;;;;;;;23.23;14.35;;;;;;;;;;1493458;39;20044;-59
2021/07/03 03:06:58;;;;;;;24.67;14.15;;;;;;;;;;1493271;39;20024;-55
2021/07/03 03:08:00;;;;;;;26.70;14.43;;;;;;;;;;1493279;39;20020;-57
2021/07/03 03:09:01;;;;;;;24.90;14.73;;;;;;;;;;1493259;39;20035;-57
2021/07/03 03:10:04;;;;;;;26.98;14.48;;;;;;;;;;1493287;39;20024;-56
2021/07/03 03:11:05;;;;;;;25.65;13.82;;;;;;;;;;1493232;39;20293;-56
2021/07/03 03:12:07;;;;;;;22.20;13.43;;;;;;;;;;1493182;39;20031;-57
2021/07/03 03:13:08;;;;;;;26.65;14.27;;;;;;;;;;1493203;39;20027;-57
2021/07/03 03:14:10;;;;;;;25.48;14.32;;;;;;;;;;1493299;39;20027;-57
2021/07/03 03:15:13;;;;;;;25.05;14.07;;;;;;;;;;1493245;39;20031;-55
2021/07/03 03:16:15;;;;;;;25.23;14.10;;;;;;;;;;1492595;39;20425;-57
2021/07/03 03:17:16;;;;;;;22.70;13.60;;;;;;;;;;1492635;39;20104;-55
2021/07/03 03:18:17;;;;;;;23.92;14.02;;;;;;;;;;1493283;39;20039;-56
2021/07/03 03:19:18;;;;;;;25.20;13.27;;;;;;;;;;1493159;39;20030;-57
2021/07/03 03:20:20;;;;;;;29.23;15.27;;;;;;;;;;1493212;39;20020;-57
2021/07/03 03:21:21;;;;;;;26.25;14.48;;;;;;;;;;1493239;39;20031;-57
2021/07/03 03:22:23;;;;;;;27.00;14.57;;;;;;;;;;1493325;39;20024;-56
2021/07/03 03:23:24;;;;;;;27.48;14.88;;;;;;;;;;1493332;39;20024;-57
2021/07/03 03:24:25;;;;;;;25.48;14.25;;;;;;;;;;1493303;39;20311;-57
2021/07/03 03:25:28;;;;;;;24.50;13.05;;;;;;;;;;1493216;39;20024;-56
2021/07/03 03:26:30;;;;;;;27.35;13.95;;;;;;;;;;1493350;39;20024;-57
2021/07/03 03:27:30;;;;;;;27.13;15.18;;;;;;;;;;1493095;39;20020;-57
2021/07/03 03:28:32;;;;;;;27.63;15.20;;;;;;;;;;1493257;39;20074;-58
2021/07/03 03:29:33;;;;;;;23.77;14.45;;;;;;;;;;1493118;39;20034;-57
2021/07/03 03:30:35;;;;;;;27.52;15.50;;;;;;;;;;1493236;39;20060;-57
2021/07/03 03:31:36;;;;;;;28.30;14.73;;;;;;;;;;1493128;39;20031;-57
2021/07/03 03:32:38;;;;;;;23.25;13.50;;;;;;;;;;1493301;39;20046;-57
2021/07/03 03:33:39;;;;;;;24.40;14.10;;;;;;;;;;1493143;39;20024;-57
2021/07/03 03:34:41;;;;;;;25.50;13.63;;;;;;;;;;1493271;39;20024;-57
2021/07/03 03:35:42;;;;;;;24.02;13.82;;;;;;;;;;1493154;39;20027;-57
2021/07/03 03:36:43;;;;;;;22.42;13.82;;;;;;;;;;1493258;39;20070;-57
2021/07/03 03:37:44;;;;;;;25.83;13.88;;;;;;;;;;1493161;39;20023;-56
2021/07/03 03:38:46;;;;;;;25.17;13.82;;;;;;;;;;1492937;39;20108;-57
2021/07/03 03:39:47;;;;;;;21.92;12.25;;;;;;;;;;1493189;39;20030;-57
2021/07/03 03:40:50;;;;;;;23.98;13.75;;;;;;;;;;1493295;39;20050;-57
2021/07/03 03:41:51;;;;;;;24.70;14.10;;;;;;;;;;1493099;39;20024;-57
2021/07/03 03:42:53;;;;;;;24.90;13.85;;;;;;;;;;1493101;39;20032;-58
2021/07/03 03:43:54;;;;;;;28.27;14.43;;;;;;;;;;1493182;39;20027;-57
2021/07/03 03:44:56;;;;;;;25.17;13.90;;;;;;;;;;1493319;39;20021;-56
2021/07/03 03:45:57;;;;;;;25.45;13.68;;;;;;;;;;1493341;39;20024;-57
2021/07/03 03:46:58;;;;;;;23.23;13.55;;;;;;;;;;1493343;39;20283;-57
2021/07/03 03:47:59;;;;;;;25.45;13.63;;;;;;;;;;1493136;39;20402;-57
2021/07/03 03:49:01;;;;;;;25.00;13.95;;;;;;;;;;1493093;39;20113;-57
2021/07/03 03:50:03;;;;;;;27.38;14.23;;;;;;;;;;1493089;39;20035;-58
2021/07/03 03:51:05;;;;;;;23.60;13.88;;;;;;;;;;1493141;39;20388;-57
2021/07/03 03:52:06;;;;;;;22.95;13.55;;;;;;;;;;1493110;39;20035;-57
2021/07/03 03:53:08;;;;;;;24.67;13.55;;;;;;;;;;1493128;39;20172;-57
2021/07/03 03:54:08;;;;;;;24.70;14.00;;;;;;;;;;1493095;39;20020;-57
2021/07/03 03:55:10;;;;;;;25.17;14.40;;;;;;;;;;1493242;39;20026;-57
2021/07/03 03:56:13;;;;;;;26.67;13.82;;;;;;;;;;1493061;39;20020;-57
2021/07/03 03:57:28;;;;;;;24.55;13.88;;;;;;;;;;1493110;39;20075;-57
2021/07/03 03:58:29;;;;;;;24.83;13.95;;;;;;;;;;1493117;39;20036;-57
2021/07/03 03:59:31;;;;;;;24.58;13.73;;;;;;;;;;1493149;39;20030;-58
2021/07/03 04:00:33;;;;;;;25.08;14.48;;;;;;;;;;1493092;39;20092;-57
2021/07/03 04:01:34;;;;;;;25.67;14.45;;;;;;;;;;1493077;39;20024;-57
2021/07/03 04:02:36;;;;;;;22.30;14.30;;;;;;;;;;1493122;39;20028;-58
2021/07/03 04:03:37;;;;;;;29.35;14.77;;;;;;;;;;1493081;39;20023;-57
2021/07/03 04:04:38;;;;;;;26.67;14.20;;;;;;;;;;1493110;39;20027;-57
2021/07/03 04:05:39;;;;;;;24.85;14.40;;;;;;;;;;1493053;39;20035;-58
2021/07/03 04:06:41;;;;;;;27.25;14.30;;;;;;;;;;1493100;39;20031;-57
2021/07/03 04:07:42;;;;;;;24.23;14.68;;;;;;;;;;1493176;39;20407;-57
2021/07/03 04:08:44;;;;;;;25.10;13.95;;;;;;;;;;1493034;39;20375;-58
2021/07/03 04:09:45;;;;;;;23.05;13.82;;;;;;;;;;1493143;39;20027;-57
2021/07/03 04:10:47;;;;;;;26.08;13.57;;;;;;;;;;1493283;39;20024;-58
2021/07/03 04:11:49;;;;;;;27.92;14.23;;;;;;;;;;1492988;39;20027;-57
2021/07/03 04:12:51;;;;;;;25.52;13.85;;;;;;;;;;1493228;39;20039;-57
2021/07/03 04:13:52;;;;;;;26.00;14.27;;;;;;;;;;1493007;39;20028;-57
2021/07/03 04:14:54;;;;;;;25.00;14.82;;;;;;;;;;1493290;39;20032;-57
2021/07/03 04:15:55;;;;;;;24.73;13.98;;;;;;;;;;1493000;39;20024;-57
2021/07/03 04:16:56;;;;;;;25.23;13.43;;;;;;;;;;1493073;39;20031;-57
2021/07/03 04:17:57;;;;;;;24.38;13.05;;;;;;;;;;1493230;39;20020;-57
2021/07/03 04:18:59;;;;;;;24.65;12.73;;;;;;;;;;1493095;39;20402;-57
2021/07/03 04:20:00;;;;;;;25.65;14.40;;;;;;;;;;1493058;39;20366;-57
2021/07/03 04:21:02;;;;;;;23.83;13.10;;;;;;;;;;1493184;39;20032;-58
2021/07/03 04:22:03;;;;;;;24.75;13.85;;;;;;;;;;1493142;39;20039;-58
2021/07/03 04:23:05;;;;;;;22.90;12.93;;;;;;;;;;1493210;39;20020;-56
2021/07/03 04:24:06;;;;;;;23.02;12.73;;;;;;;;;;1493045;39;20334;-57
2021/07/03 04:25:11;;;;;;;23.45;13.57;;;;;;;;;;1493081;39;20023;-57
2021/07/03 04:26:11;;;;;;;23.10;13.65;;;;;;;;;;1493111;39;20038;-57
2021/07/03 04:27:15;;;;;;;24.77;13.70;;;;;;;;;;1493099;39;20028;-57
2021/07/03 04:28:16;;;;;;;25.67;13.52;;;;;;;;;;1493021;39;20028;-57
2021/07/03 04:29:18;;;;;;;21.48;13.38;;;;;;;;;;1493217;39;20390;-57
2021/07/03 04:30:20;;;;;;;23.30;12.77;;;;;;;;;;1493045;39;20020;-58
2021/07/03 04:31:22;;;;;;;23.05;13.43;;;;;;;;;;1493101;39;20148;-57
2021/07/03 04:32:22;;;;;;;24.58;13.63;;;;;;;;;;1493061;39;20020;-57
2021/07/03 04:33:24;;;;;;;24.45;13.82;;;;;;;;;;1493119;39;20292;-57
2021/07/03 04:34:26;;;;;;;21.10;13.00;;;;;;;;;;1493036;39;20028;-57
2021/07/03 04:35:29;;;;;;;22.38;13.10;;;;;;;;;;1493038;39;20028;-57
2021/07/03 04:36:30;;;;;;;24.88;13.05;;;;;;;;;;1493099;39;20039;-57
2021/07/03 04:37:32;;;;;;;21.83;13.18;;;;;;;;;;1493021;39;20024;-58
2021/07/03 04:38:32;;;;;;;23.13;13.07;;;;;;;;;;1493073;39;20112;-57
2021/07/03 04:39:34;;;;;;;26.38;13.50;;;;;;;;;;1493106;39;20039;-57
2021/07/03 04:40:35;;;;;;;24.25;13.00;;;;;;;;;;1492983;39;20039;-58
2021/07/03 04:41:37;;;;;;;24.63;13.32;;;;;;;;;;1493033;39;20031;-58
2021/07/03 04:42:39;;;;;;;22.23;12.93;;;;;;;;;;1493104;39;20116;-57
2021/07/03 04:43:42;;;;;;;22.95;13.60;;;;;;;;;;1493028;39;20039;-57
2021/07/03 04:44:43;;;;;;;25.25;13.43;;;;;;;;;;1493014;39;20415;-57
2021/07/03 04:45:45;;;;;;;24.15;13.45;;;;;;;;;;1493266;39;20036;-58
2021/07/03 04:46:48;;;;;;;24.23;13.50;;;;;;;;;;1493108;39;20020;-57
2021/07/03 04:47:48;;;;;;;23.60;13.77;;;;;;;;;;1492942;39;20020;-58
2021/07/03 04:48:50;;;;;;;23.55;14.10;;;;;;;;;;1493138;39;20031;-57
2021/07/03 04:49:51;;;;;;;25.90;14.20;;;;;;;;;;1493013;39;20024;-57
2021/07/03 04:50:53;;;;;;;25.35;14.85;;;;;;;;;;1492514;39;20027;-57
2021/07/03 04:51:54;;;;;;;27.88;13.40;;;;;;;;;;1493154;39;20051;-56
2021/07/03 04:52:56;;;;;;;23.27;12.73;;;;;;;;;;1492879;39;20032;-57
2021/07/03 04:53:56;;;;;;;21.50;12.80;;;;;;;;;;1493020;39;20383;-57
2021/07/03 04:54:59;;;;;;;23.58;13.13;;;;;;;;;;1493012;39;20024;-57
2021/07/03 04:55:59;;;;;;;21.55;13.55;;;;;;;;;;1492910;39;20020;-58
2021/07/03 04:57:11;;;;;;;23.50;13.18;;;;;;;;;;1493072;39;20035;-57
2021/07/03 04:58:13;;;;;;;22.17;13.00;;;;;;;;;;1493031;39;20384;-57
2021/07/03 04:59:15;;;;;;;22.08;13.05;;;;;;;;;;1492987;39;20027;-57
2021/07/03 05:00:16;;;;;;;24.90;13.60;;;;;;;;;;1492936;39;20422;-57
2021/07/03 05:01:18;;;;;;;27.35;14.57;;;;;;;;;;1492903;39;20020;-58
2021/07/03 05:02:19;;;;;;;24.42;13.80;;;;;;;;;;1492825;39;20387;-58
2021/07/03 05:03:21;;;;;;;24.58;13.60;;;;;;;;;;1493034;39;20027;-57
2021/07/03 05:04:21;;;;;;;24.98;14.25;;;;;;;;;;1492907;39;20023;-57
2021/07/03 05:05:23;;;;;;;22.90;13.80;;;;;;;;;;1493025;39;20038;-58
2021/07/03 05:06:24;;;;;;;25.55;15.15;;;;;;;;;;1492952;39;20025;-58
2021/07/03 05:07:26;;;;;;;23.00;13.68;;;;;;;;;;1492996;39;20024;-58
2021/07/03 05:08:27;;;;;;;26.65;15.20;;;;;;;;;;1493042;39;20020;-57
2021/07/03 05:09:29;;;;;;;24.73;14.80;;;;;;;;;;1493084;39;20387;-57
2021/07/03 05:10:30;;;;;;;26.52;15.35;;;;;;;;;;1493016;39;20031;-58
2021/07/03 05:11:32;;;;;;;24.40;14.95;;;;;;;;;;1492828;39;20024;-58
2021/07/03 05:12:32;;;;;;;23.67;14.90;;;;;;;;;;1492809;39;20020;-57
2021/07/03 05:13:36;;;;;;;27.40;15.18;;;;;;;;;;1492947;39;20028;-58
2021/07/03 05:14:37;;;;;;;25.83;14.55;;;;;;;;;;1492868;39;20024;-58
2021/07/03 05:15:38;;;;;;;24.98;14.70;;;;;;;;;;1492965;39;20035;-57
2021/07/03 05:16:39;;;;;;;25.50;13.95;;;;;;;;;;1492842;39;20027;-58
2021/07/03 05:17:41;;;;;;;22.77;13.63;;;;;;;;;;1492967;39;20027;-58
2021/07/03 05:18:42;;;;;;;23.45;14.20;;;;;;;;;;1492975;39;20047;-58
2021/07/03 05:19:44;;;;;;;24.20;13.23;;;;;;;;;;1492932;39;20019;-58
2021/07/03 05:20:45;;;;;;;25.10;13.27;;;;;;;;;;1492864;39;20020;-58
2021/07/03 05:21:47;;;;;;;25.10;13.85;;;;;;;;;;1492904;39;20284;-58
2021/07/03 05:22:48;;;;;;;22.65;12.95;;;;;;;;;;1492892;39;20035;-58
2021/07/03 05:23:49;;;;;;;26.17;13.73;;;;;;;;;;1492972;39;20028;-58
2021/07/03 05:24:50;;;;;;;26.88;14.20;;;;;;;;;;1492922;39;20016;-58
2021/07/03 05:25:53;;;;;;;21.55;13.20;;;;;;;;;;1492896;39;20024;-58
2021/07/03 05:26:54;;;;;;;24.63;14.27;;;;;;;;;;1492817;39;20024;-58
2021/07/03 05:27:56;;;;;;;20.92;12.73;;;;;;;;;;1492887;39;20031;-57
2021/07/03 05:28:58;;;;;;;23.02;13.20;;;;;;;;;;1492786;39;20026;-58
2021/07/03 05:30:00;;;;;;;20.52;13.07;;;;;;;;;;1492941;39;20034;-58
2021/07/03 05:31:00;;;;;;;24.23;13.73;;;;;;;;;;1492976;39;20024;-58
2021/07/03 05:32:02;;;;;;;23.05;12.90;;;;;;;;;;1492777;39;20331;-57
2021/07/03 05:33:04;;;;;;;24.90;13.27;;;;;;;;;;1492778;39;20031;-58
2021/07/03 05:34:05;;;;;;;23.35;13.48;;;;;;;;;;1492964;39;20046;-57
2021/07/03 05:35:07;;;;;;;22.77;12.82;;;;;;;;;;1493011;39;20055;-58
2021/07/03 05:36:09;;;;;;;25.50;13.98;;;;;;;;;;1493092;39;20050;-58
2021/07/03 05:37:10;;;;;;;21.02;12.45;;;;;;;;;;1492798;39;20020;-58
2021/07/03 05:38:12;;;;;;;20.27;12.13;;;;;;;;;;1492957;39;20024;-58
2021/07/03 05:39:13;;;;;;;20.55;12.27;;;;;;;;;;1492802;39;20020;-58
2021/07/03 05:40:17;;;;;;;19.35;12.30;;;;;;;;;;1492960;39;20109;-58
2021/07/03 05:41:19;;;;;;;21.85;12.60;;;;;;;;;;1492792;39;20068;-58
2021/07/03 05:42:21;;;;;;;21.50;12.85;;;;;;;;;;1492859;39;20108;-58
2021/07/03 05:43:21;;;;;;;22.25;13.82;;;;;;;;;;1492782;39;20024;-58
2021/07/03 05:44:25;;;;;;;21.40;12.93;;;;;;;;;;1492917;39;20051;-58
2021/07/03 05:45:26;;;;;;;21.33;12.75;;;;;;;;;;1492889;39;20055;-58
2021/07/03 05:46:27;;;;;;;21.80;12.57;;;;;;;;;;1492904;39;20036;-58
2021/07/03 05:47:28;;;;;;;22.35;14.23;;;;;;;;;;1492826;39;20100;-58
2021/07/03 05:48:30;;;;;;;22.45;13.23;;;;;;;;;;1492962;39;20464;-58
2021/07/03 05:49:31;;;;;;;22.60;13.18;;;;;;;;;;1492811;39;20024;-59
2021/07/03 05:50:33;;;;;;;23.52;13.48;;;;;;;;;;1492932;39;20031;-58
2021/07/03 05:51:35;;;;;;;24.05;13.40;;;;;;;;;;1492655;39;20024;-59
2021/07/03 05:52:37;;;;;;;25.35;13.88;;;;;;;;;;1492877;39;20043;-58
2021/07/03 05:53:38;;;;;;;22.33;12.95;;;;;;;;;;1492783;39;20392;-58
2021/07/03 05:54:40;;;;;;;21.65;13.60;;;;;;;;;;1492819;39;20020;-59
2021/07/03 05:55:41;;;;;;;22.75;13.70;;;;;;;;;;1492859;39;20416;-58
2021/07/03 05:56:43;;;;;;;24.90;13.68;;;;;;;;;;1492851;39;20035;-58
2021/07/03 05:57:44;;;;;;;21.85;13.55;;;;;;;;;;1492850;39;20020;-58
2021/07/03 05:58:46;;;;;;;19.52;13.13;;;;;;;;;;1492799;39;20028;-59